createdAt,value
2017-07-20T00:00:31.209Z,0
2017-07-20T00:01:31.506Z,0
2017-07-20T00:02:31.257Z,0
2017-07-20T00:03:31.178Z,0
2017-07-20T00:04:31.468Z,0
2017-07-20T00:05:31.169Z,0
2017-07-20T00:06:31.445Z,0
2017-07-20T00:07:31.435Z,0
2017-07-20T00:08:31.431Z,0
2017-07-20T00:09:31.095Z,0
2017-07-20T00:10:31.095Z,0
2017-07-20T00:11:31.066Z,0
2017-07-20T00:12:31.372Z,0
2017-07-20T00:13:31.362Z,0
2017-07-20T00:14:31.356Z,0
2017-07-20T00:15:31.356Z,0
2017-07-20T00:16:31.019Z,0
2017-07-20T00:17:31.305Z,0
2017-07-20T00:18:30.677Z,0
2017-07-20T00:19:31.276Z,0
2017-07-20T00:20:31.311Z,0
2017-07-20T00:21:31.249Z,0
2017-07-20T00:22:30.926Z,0
2017-07-20T00:23:31.213Z,0
2017-07-20T00:24:30.936Z,0
2017-07-20T00:25:31.197Z,0
2017-07-20T00:26:31.214Z,0
2017-07-20T00:27:31.177Z,0
2017-07-20T00:28:30.857Z,0
2017-07-20T00:29:31.167Z,0
2017-07-20T00:30:30.846Z,0
2017-07-20T00:31:30.509Z,0
2017-07-20T00:32:31.135Z,0
2017-07-20T00:33:31.125Z,0
2017-07-20T00:34:30.186Z,0
2017-07-20T00:35:31.084Z,0
2017-07-20T00:36:30.761Z,0
2017-07-20T00:37:30.759Z,0
2017-07-20T00:38:31.028Z,0
2017-07-20T00:39:30.435Z,0
2017-07-20T00:40:31.055Z,0
2017-07-20T00:41:30.705Z,0
2017-07-20T00:42:31.029Z,0
2017-07-20T00:43:30.695Z,0
2017-07-20T00:44:30.745Z,0
2017-07-20T00:45:30.687Z,0
2017-07-20T00:46:30.974Z,0
2017-07-20T00:47:30.956Z,0
2017-07-20T00:48:30.317Z,0
2017-07-20T00:49:30.964Z,0
2017-07-20T00:50:30.896Z,0
2017-07-20T00:51:30.904Z,0
2017-07-20T00:52:30.294Z,0
2017-07-20T00:53:30.893Z,0
2017-07-20T00:54:30.236Z,0
2017-07-20T00:55:30.529Z,0
2017-07-20T00:56:30.804Z,0
2017-07-20T00:57:30.904Z,0
2017-07-20T00:58:30.496Z,0
2017-07-20T00:59:30.775Z,0
2017-07-20T01:00:29.836Z,0
2017-07-20T01:01:30.783Z,0
2017-07-20T01:02:30.429Z,0
2017-07-20T01:03:30.714Z,0
2017-07-20T01:04:30.146Z,0
2017-07-20T01:05:30.716Z,0
2017-07-20T01:06:30.685Z,0
2017-07-20T01:07:30.375Z,0
2017-07-20T01:08:30.055Z,0
2017-07-20T01:09:30.647Z,0
2017-07-20T01:10:30.330Z,0
2017-07-20T01:11:30.304Z,0
2017-07-20T01:12:30.316Z,0
2017-07-20T01:13:30.115Z,0
2017-07-20T01:14:30.584Z,0
2017-07-20T01:15:30.266Z,0
2017-07-20T01:16:30.261Z,0
2017-07-20T01:17:30.341Z,0
2017-07-20T01:18:30.244Z,0
2017-07-20T01:19:30.514Z,0
2017-07-20T01:20:30.513Z,0
2017-07-20T01:21:30.201Z,0
2017-07-20T01:22:30.186Z,0
2017-07-20T01:23:30.485Z,0
2017-07-20T01:24:30.454Z,0
2017-07-20T01:25:30.454Z,0
2017-07-20T01:26:30.437Z,0
2017-07-20T01:27:30.189Z,0
2017-07-20T01:28:30.106Z,0
2017-07-20T01:29:30.195Z,0
2017-07-20T01:30:30.122Z,0
2017-07-20T01:31:30.115Z,0
2017-07-20T01:32:30.061Z,0
2017-07-20T01:33:30.036Z,0
2017-07-20T01:34:30.115Z,0
2017-07-20T01:35:30.006Z,0
2017-07-20T01:36:29.733Z,0
2017-07-20T01:37:30.045Z,0
2017-07-20T01:38:29.975Z,0
2017-07-20T01:39:30.066Z,0
2017-07-20T01:40:30.246Z,0
2017-07-20T01:41:30.005Z,0
2017-07-20T01:42:30.229Z,0
2017-07-20T01:43:30.207Z,0
2017-07-20T01:44:29.963Z,0
2017-07-20T01:45:29.877Z,0
2017-07-20T01:46:30.200Z,0
2017-07-20T01:47:30.286Z,0
2017-07-20T01:48:30.156Z,0
2017-07-20T01:49:30.134Z,0
2017-07-20T01:50:30.143Z,0
2017-07-20T01:51:29.794Z,0
2017-07-20T01:52:30.214Z,0
2017-07-20T01:53:29.824Z,0
2017-07-20T01:54:29.473Z,0
2017-07-20T01:55:29.444Z,0
2017-07-20T01:56:29.742Z,0
2017-07-20T01:57:29.393Z,0
2017-07-20T01:58:30.014Z,0
2017-07-20T01:59:29.383Z,0
2017-07-20T02:00:29.680Z,0
2017-07-20T02:01:30.072Z,0
2017-07-20T02:02:29.653Z,0
2017-07-20T02:03:29.706Z,0
2017-07-20T02:04:29.624Z,0
2017-07-20T02:05:29.989Z,0
2017-07-20T02:06:29.279Z,0
2017-07-20T02:07:29.286Z,0
2017-07-20T02:08:29.934Z,0
2017-07-20T02:09:29.553Z,0
2017-07-20T02:10:29.522Z,0
2017-07-20T02:11:29.523Z,0
2017-07-20T02:12:29.224Z,0
2017-07-20T02:13:29.824Z,0
2017-07-20T02:14:29.174Z,0
2017-07-20T02:15:29.786Z,0
2017-07-20T02:16:29.774Z,0
2017-07-20T02:17:29.763Z,0
2017-07-20T02:18:29.126Z,0
2017-07-20T02:19:29.114Z,0
2017-07-20T02:20:29.724Z,0
2017-07-20T02:21:29.400Z,0
2017-07-20T02:22:28.799Z,0
2017-07-20T02:23:29.364Z,0
2017-07-20T02:24:29.055Z,0
2017-07-20T02:25:29.327Z,0
2017-07-20T02:26:29.644Z,0
2017-07-20T02:27:29.005Z,0
2017-07-20T02:28:29.297Z,0
2017-07-20T02:29:28.966Z,0
2017-07-20T02:30:28.980Z,0
2017-07-20T02:31:29.266Z,0
2017-07-20T02:32:29.247Z,0
2017-07-20T02:33:29.258Z,0
2017-07-20T02:34:28.935Z,0
2017-07-20T02:35:29.205Z,0
2017-07-20T02:36:28.890Z,0
2017-07-20T02:37:28.873Z,0
2017-07-20T02:38:29.193Z,0
2017-07-20T02:39:29.485Z,0
2017-07-20T02:40:29.156Z,0
2017-07-20T02:41:29.135Z,0
2017-07-20T02:42:28.574Z,0
2017-07-20T02:43:29.126Z,0
2017-07-20T02:44:29.103Z,0
2017-07-20T02:45:29.094Z,0
2017-07-20T02:46:28.782Z,0
2017-07-20T02:47:29.045Z,0
2017-07-20T02:48:29.354Z,0
2017-07-20T02:49:29.053Z,0
2017-07-20T02:50:29.014Z,0
2017-07-20T02:51:28.994Z,0
2017-07-20T02:52:29.001Z,0
2017-07-20T02:53:29.273Z,0
2017-07-20T02:54:29.023Z,0
2017-07-20T02:55:29.264Z,0
2017-07-20T02:56:28.922Z,0
2017-07-20T02:57:28.924Z,0
2017-07-20T02:58:28.304Z,0
2017-07-20T02:59:29.210Z,0
2017-07-20T03:00:29.204Z,0
2017-07-20T03:01:29.198Z,0
2017-07-20T03:02:29.166Z,0
2017-07-20T03:03:29.213Z,0
2017-07-20T03:04:28.905Z,0
2017-07-20T03:05:29.202Z,0
2017-07-20T03:06:28.821Z,0
2017-07-20T03:07:29.085Z,0
2017-07-20T03:08:28.783Z,4
2017-07-20T03:09:29.088Z,4
2017-07-20T03:10:28.554Z,0
2017-07-20T03:11:28.424Z,0
2017-07-20T03:12:28.735Z,4
2017-07-20T03:13:29.076Z,4
2017-07-20T03:14:28.997Z,4
2017-07-20T03:15:29.387Z,4
2017-07-20T03:16:29.367Z,8
2017-07-20T03:17:28.684Z,4
2017-07-20T03:18:29.105Z,4
2017-07-20T03:19:29.015Z,8
2017-07-20T03:20:28.936Z,8
2017-07-20T03:21:29.285Z,8
2017-07-20T03:22:28.986Z,12
2017-07-20T03:23:28.928Z,12
2017-07-20T03:24:29.255Z,12
2017-07-20T03:25:28.293Z,12
2017-07-20T03:26:29.198Z,8
2017-07-20T03:27:29.076Z,8
2017-07-20T03:28:29.197Z,12
2017-07-20T03:29:28.580Z,12
2017-07-20T03:30:29.044Z,12
2017-07-20T03:31:28.414Z,16
2017-07-20T03:32:28.989Z,16
2017-07-20T03:33:29.147Z,20
2017-07-20T03:34:28.663Z,16
2017-07-20T03:35:28.764Z,16
2017-07-20T03:36:28.625Z,16
2017-07-20T03:37:28.714Z,16
2017-07-20T03:38:29.066Z,20
2017-07-20T03:39:29.057Z,20
2017-07-20T03:40:28.962Z,20
2017-07-20T03:41:28.329Z,24
2017-07-20T03:42:28.610Z,24
2017-07-20T03:43:28.304Z,24
2017-07-20T03:44:28.284Z,24
2017-07-20T03:45:28.274Z,28
2017-07-20T03:46:28.014Z,28
2017-07-20T03:47:28.553Z,28
2017-07-20T03:48:28.233Z,32
2017-07-20T03:49:28.583Z,40
2017-07-20T03:50:28.503Z,44
2017-07-20T03:51:28.195Z,48
2017-07-20T03:52:28.516Z,52
2017-07-20T03:53:28.472Z,64
2017-07-20T03:54:27.964Z,72
2017-07-20T03:55:28.462Z,84
2017-07-20T03:56:28.114Z,88
2017-07-20T03:57:28.428Z,96
2017-07-20T03:58:27.823Z,96
2017-07-20T03:59:28.385Z,96
2017-07-20T04:00:28.394Z,100
2017-07-20T04:01:28.375Z,104
2017-07-20T04:02:28.338Z,112
2017-07-20T04:03:28.027Z,116
2017-07-20T04:04:27.774Z,116
2017-07-20T04:05:27.683Z,112
2017-07-20T04:06:28.033Z,100
2017-07-20T04:07:27.993Z,84
2017-07-20T04:08:28.275Z,68
2017-07-20T04:09:28.233Z,68
2017-07-20T04:10:27.926Z,68
2017-07-20T04:11:28.217Z,76
2017-07-20T04:12:28.224Z,80
2017-07-20T04:13:27.573Z,88
2017-07-20T04:14:28.185Z,92
2017-07-20T04:15:27.859Z,96
2017-07-20T04:16:27.843Z,108
2017-07-20T04:17:27.523Z,116
2017-07-20T04:18:27.493Z,124
2017-07-20T04:19:28.104Z,136
2017-07-20T04:20:27.803Z,128
2017-07-20T04:21:28.083Z,120
2017-07-20T04:22:27.774Z,112
2017-07-20T04:23:28.037Z,100
2017-07-20T04:24:27.725Z,84
2017-07-20T04:25:27.429Z,76
2017-07-20T04:26:27.694Z,76
2017-07-20T04:27:28.007Z,68
2017-07-20T04:28:27.702Z,64
2017-07-20T04:29:27.664Z,60
2017-07-20T04:30:27.641Z,60
2017-07-20T04:31:27.645Z,64
2017-07-20T04:32:27.940Z,60
2017-07-20T04:33:27.935Z,64
2017-07-20T04:34:27.592Z,64
2017-07-20T04:35:27.569Z,72
2017-07-20T04:36:27.577Z,80
2017-07-20T04:37:27.899Z,88
2017-07-20T04:38:27.831Z,96
2017-07-20T04:39:27.541Z,96
2017-07-20T04:40:27.203Z,104
2017-07-20T04:41:27.202Z,108
2017-07-20T04:42:27.473Z,108
2017-07-20T04:43:27.164Z,112
2017-07-20T04:44:27.144Z,116
2017-07-20T04:45:27.753Z,116
2017-07-20T04:46:27.749Z,128
2017-07-20T04:47:27.153Z,132
2017-07-20T04:48:27.404Z,132
2017-07-20T04:49:27.448Z,136
2017-07-20T04:50:27.384Z,140
2017-07-20T04:51:27.712Z,132
2017-07-20T04:52:27.346Z,128
2017-07-20T04:53:27.327Z,116
2017-07-20T04:54:27.627Z,108
2017-07-20T04:55:27.374Z,100
2017-07-20T04:56:27.609Z,96
2017-07-20T04:57:27.594Z,88
2017-07-20T04:58:27.598Z,84
2017-07-20T04:59:27.565Z,76
2017-07-20T05:00:27.253Z,68
2017-07-20T05:01:27.576Z,68
2017-07-20T05:02:26.905Z,76
2017-07-20T05:03:27.193Z,80
2017-07-20T05:04:27.206Z,84
2017-07-20T05:05:27.487Z,80
2017-07-20T05:06:26.852Z,88
2017-07-20T05:07:27.454Z,88
2017-07-20T05:08:27.443Z,84
2017-07-20T05:09:27.424Z,88
2017-07-20T05:10:27.424Z,84
2017-07-20T05:11:26.773Z,72
2017-07-20T05:12:27.374Z,64
2017-07-20T05:13:27.073Z,56
2017-07-20T05:14:27.046Z,52
2017-07-20T05:15:27.333Z,52
2017-07-20T05:16:26.765Z,52
2017-07-20T05:17:26.708Z,56
2017-07-20T05:18:26.834Z,60
2017-07-20T05:19:26.662Z,64
2017-07-20T05:20:26.364Z,64
2017-07-20T05:21:26.953Z,68
2017-07-20T05:22:26.713Z,68
2017-07-20T05:23:26.924Z,72
2017-07-20T05:24:27.215Z,72
2017-07-20T05:25:26.903Z,84
2017-07-20T05:26:26.865Z,96
2017-07-20T05:27:26.890Z,100
2017-07-20T05:28:27.165Z,100
2017-07-20T05:29:26.849Z,92
2017-07-20T05:30:26.632Z,88
2017-07-20T05:31:27.153Z,76
2017-07-20T05:32:26.803Z,72
2017-07-20T05:33:26.572Z,72
2017-07-20T05:34:26.464Z,88
2017-07-20T05:35:27.063Z,100
2017-07-20T05:36:26.814Z,100
2017-07-20T05:37:26.723Z,96
2017-07-20T05:38:26.723Z,92
2017-07-20T05:39:26.712Z,96
2017-07-20T05:40:26.497Z,100
2017-07-20T05:41:26.486Z,104
2017-07-20T05:42:26.986Z,108
2017-07-20T05:43:26.666Z,112
2017-07-20T05:44:26.655Z,116
2017-07-20T05:45:26.926Z,124
2017-07-20T05:46:26.672Z,128
2017-07-20T05:47:26.586Z,132
2017-07-20T05:48:26.597Z,136
2017-07-20T05:49:26.311Z,144
2017-07-20T05:50:26.633Z,148
2017-07-20T05:51:26.254Z,148
2017-07-20T05:52:26.582Z,164
2017-07-20T05:53:26.536Z,176
2017-07-20T05:54:26.626Z,188
2017-07-20T05:55:26.815Z,204
2017-07-20T05:56:26.513Z,216
2017-07-20T05:57:26.793Z,216
2017-07-20T05:58:26.505Z,224
2017-07-20T05:59:26.735Z,228
2017-07-20T06:00:26.772Z,224
2017-07-20T06:01:26.504Z,224
2017-07-20T06:02:26.707Z,228
2017-07-20T06:03:26.484Z,232
2017-07-20T06:04:26.676Z,236
2017-07-20T06:05:26.693Z,236
2017-07-20T06:06:26.713Z,240
2017-07-20T06:07:26.025Z,248
2017-07-20T06:08:26.005Z,252
2017-07-20T06:09:26.744Z,264
2017-07-20T06:10:26.647Z,272
2017-07-20T06:11:26.565Z,276
2017-07-20T06:12:25.647Z,292
2017-07-20T06:13:26.247Z,304
2017-07-20T06:14:26.545Z,320
2017-07-20T06:15:26.619Z,336
2017-07-20T06:16:26.523Z,356
2017-07-20T06:17:26.515Z,388
2017-07-20T06:18:25.871Z,420
2017-07-20T06:19:26.495Z,456
2017-07-20T06:20:26.524Z,504
2017-07-20T06:21:26.453Z,560
2017-07-20T06:22:26.418Z,616
2017-07-20T06:23:26.515Z,672
2017-07-20T06:24:26.094Z,728
2017-07-20T06:25:26.096Z,796
2017-07-20T06:26:25.745Z,876
2017-07-20T06:27:26.363Z,956
2017-07-20T06:28:26.031Z,1016
2017-07-20T06:29:26.025Z,1068
2017-07-20T06:30:26.320Z,1112
2017-07-20T06:31:25.989Z,1176
2017-07-20T06:32:25.983Z,1256
2017-07-20T06:33:25.974Z,1328
2017-07-20T06:34:26.336Z,1404
2017-07-20T06:35:26.248Z,1480
2017-07-20T06:36:25.644Z,1524
2017-07-20T06:37:25.920Z,1520
2017-07-20T06:38:25.915Z,1528
2017-07-20T06:39:25.887Z,1504
2017-07-20T06:40:25.885Z,1536
2017-07-20T06:41:25.565Z,1572
2017-07-20T06:42:25.856Z,1684
2017-07-20T06:43:25.845Z,1884
2017-07-20T06:44:26.115Z,2092
2017-07-20T06:45:25.813Z,2260
2017-07-20T06:46:25.804Z,2364
2017-07-20T06:47:26.094Z,2408
2017-07-20T06:48:26.094Z,2460
2017-07-20T06:49:25.753Z,2604
2017-07-20T06:50:26.052Z,2916
2017-07-20T06:51:26.054Z,3368
2017-07-20T06:52:26.018Z,3936
2017-07-20T06:53:26.007Z,4540
2017-07-20T06:54:25.670Z,4760
2017-07-20T06:55:25.682Z,4700
2017-07-20T06:56:25.366Z,5012
2017-07-20T06:57:25.644Z,5396
2017-07-20T06:58:25.654Z,5644
2017-07-20T06:59:25.929Z,5452
2017-07-20T07:00:25.925Z,5192
2017-07-20T07:01:25.602Z,4976
2017-07-20T07:02:25.904Z,4712
2017-07-20T07:03:25.874Z,4588
2017-07-20T07:04:25.854Z,4524
2017-07-20T07:05:25.535Z,4496
2017-07-20T07:06:25.826Z,4520
2017-07-20T07:07:25.515Z,4520
2017-07-20T07:08:25.506Z,4424
2017-07-20T07:09:25.484Z,4400
2017-07-20T07:10:25.789Z,4400
2017-07-20T07:11:25.474Z,4464
2017-07-20T07:12:25.456Z,4620
2017-07-20T07:13:25.196Z,4472
2017-07-20T07:14:25.724Z,4064
2017-07-20T07:15:25.415Z,3844
2017-07-20T07:16:25.693Z,3852
2017-07-20T07:17:25.705Z,4084
2017-07-20T07:18:25.394Z,4452
2017-07-20T07:19:25.706Z,4976
2017-07-20T07:20:25.381Z,5576
2017-07-20T07:21:25.044Z,6168
2017-07-20T07:22:25.334Z,6292
2017-07-20T07:23:25.340Z,6164
2017-07-20T07:24:25.626Z,5732
2017-07-20T07:25:25.715Z,5316
2017-07-20T07:26:25.596Z,4876
2017-07-20T07:27:25.645Z,4608
2017-07-20T07:28:24.966Z,4368
2017-07-20T07:29:25.358Z,3996
2017-07-20T07:30:25.235Z,3096
2017-07-20T07:31:24.705Z,1908
2017-07-20T07:32:25.515Z,1532
2017-07-20T07:33:25.547Z,1268
2017-07-20T07:34:25.217Z,1076
2017-07-20T07:35:25.503Z,1044
2017-07-20T07:36:25.503Z,1088
2017-07-20T07:37:25.197Z,1128
2017-07-20T07:38:25.184Z,1324
2017-07-20T07:39:25.505Z,1924
2017-07-20T07:40:24.813Z,3044
2017-07-20T07:41:25.108Z,3932
2017-07-20T07:42:25.091Z,4456
2017-07-20T07:43:25.376Z,4244
2017-07-20T07:44:24.516Z,5584
2017-07-20T07:45:24.747Z,5748
2017-07-20T07:46:24.728Z,6156
2017-07-20T07:47:25.345Z,6260
2017-07-20T07:48:25.336Z,6500
2017-07-20T07:49:24.746Z,6688
2017-07-20T07:50:24.684Z,6708
2017-07-20T07:51:24.996Z,6932
2017-07-20T07:52:25.265Z,7376
2017-07-20T07:53:25.273Z,7748
2017-07-20T07:54:25.273Z,7772
2017-07-20T07:55:25.261Z,7696
2017-07-20T07:56:25.239Z,7324
2017-07-20T07:57:24.700Z,6092
2017-07-20T07:58:25.202Z,5312
2017-07-20T07:59:24.894Z,4212
2017-07-20T08:00:25.179Z,3460
2017-07-20T08:01:24.857Z,3240
2017-07-20T08:02:24.846Z,2948
2017-07-20T08:03:24.849Z,2668
2017-07-20T08:04:25.118Z,2252
2017-07-20T08:05:24.804Z,1892
2017-07-20T08:06:25.122Z,1732
2017-07-20T08:07:24.542Z,1608
2017-07-20T08:08:25.066Z,1460
2017-07-20T08:09:25.065Z,1308
2017-07-20T08:10:25.290Z,1020
2017-07-20T08:11:24.735Z,1004
2017-07-20T08:12:25.014Z,972
2017-07-20T08:13:24.704Z,860
2017-07-20T08:14:24.997Z,920
2017-07-20T08:15:24.984Z,1168
2017-07-20T08:16:24.977Z,1412
2017-07-20T08:17:24.967Z,1652
2017-07-20T08:18:24.944Z,1788
2017-07-20T08:19:24.947Z,1764
2017-07-20T08:20:24.951Z,1860
2017-07-20T08:21:25.086Z,2008
2017-07-20T08:22:24.915Z,2172
2017-07-20T08:23:24.886Z,2204
2017-07-20T08:24:24.993Z,2164
2017-07-20T08:25:24.870Z,2604
2017-07-20T08:26:24.536Z,2912
2017-07-20T08:27:24.933Z,2456
2017-07-20T08:28:24.514Z,2088
2017-07-20T08:29:24.836Z,1992
2017-07-20T08:30:24.182Z,2120
2017-07-20T08:31:24.206Z,2924
2017-07-20T08:32:24.806Z,3380
2017-07-20T08:33:24.783Z,2804
2017-07-20T08:34:24.854Z,2684
2017-07-20T08:35:24.834Z,2820
2017-07-20T08:36:24.776Z,3588
2017-07-20T08:37:24.098Z,3480
2017-07-20T08:38:24.104Z,3444
2017-07-20T08:39:24.394Z,3292
2017-07-20T08:40:24.733Z,3116
2017-07-20T08:41:24.361Z,3228
2017-07-20T08:42:24.347Z,3300
2017-07-20T08:43:24.330Z,3404
2017-07-20T08:44:24.735Z,2988
2017-07-20T08:45:24.304Z,3292
2017-07-20T08:46:24.654Z,3440
2017-07-20T08:47:24.657Z,2972
2017-07-20T08:48:24.621Z,2536
2017-07-20T08:49:24.289Z,2740
2017-07-20T08:50:24.251Z,3208
2017-07-20T08:51:24.234Z,3460
2017-07-20T08:52:24.232Z,3944
2017-07-20T08:53:24.203Z,3812
2017-07-20T08:54:24.521Z,3900
2017-07-20T08:55:24.184Z,4688
2017-07-20T08:56:24.491Z,5000
2017-07-20T08:57:24.155Z,5232
2017-07-20T08:58:23.950Z,4448
2017-07-20T08:59:24.455Z,3788
2017-07-20T09:00:24.145Z,2836
2017-07-20T09:01:24.123Z,3092
2017-07-20T09:02:24.115Z,4204
2017-07-20T09:03:24.403Z,3664
2017-07-20T09:04:24.065Z,2680
2017-07-20T09:05:24.385Z,2412
2017-07-20T09:06:23.726Z,3072
2017-07-20T09:07:24.043Z,2620
2017-07-20T09:08:24.018Z,2356
2017-07-20T09:09:23.731Z,2104
2017-07-20T09:10:24.315Z,3132
2017-07-20T09:11:24.300Z,3304
2017-07-20T09:12:24.274Z,2424
2017-07-20T09:13:23.986Z,2148
2017-07-20T09:14:24.268Z,2340
2017-07-20T09:15:24.043Z,2220
2017-07-20T09:16:24.227Z,2944
2017-07-20T09:17:23.928Z,3224
2017-07-20T09:18:24.214Z,3728
2017-07-20T09:19:23.602Z,3240
2017-07-20T09:20:23.584Z,3600
2017-07-20T09:21:24.175Z,5268
2017-07-20T09:22:23.845Z,4244
2017-07-20T09:23:24.148Z,4448
2017-07-20T09:24:24.158Z,6412
2017-07-20T09:25:24.135Z,21088
2017-07-20T09:26:24.117Z,6788
2017-07-20T09:27:24.102Z,3468
2017-07-20T09:28:24.097Z,3760
2017-07-20T09:29:24.090Z,3728
2017-07-20T09:30:24.094Z,4108
2017-07-20T09:31:23.778Z,3876
2017-07-20T09:32:23.760Z,4156
2017-07-20T09:33:24.045Z,5964
2017-07-20T09:34:24.031Z,4076
2017-07-20T09:35:24.021Z,5148
2017-07-20T09:36:23.694Z,5864
2017-07-20T09:37:24.004Z,7452
2017-07-20T09:38:23.961Z,6604
2017-07-20T09:39:23.958Z,6136
2017-07-20T09:40:23.652Z,7500
2017-07-20T09:41:23.640Z,8460
2017-07-20T09:42:23.938Z,9124
2017-07-20T09:43:23.937Z,11036
2017-07-20T09:44:23.984Z,10648
2017-07-20T09:45:23.952Z,9700
2017-07-20T09:46:23.597Z,31936
2017-07-20T09:47:23.614Z,9636
2017-07-20T09:48:23.552Z,7248
2017-07-20T09:49:23.953Z,7720
2017-07-20T09:50:23.824Z,9140
2017-07-20T09:51:23.516Z,35232
2017-07-20T09:52:23.514Z,30816
2017-07-20T09:53:23.584Z,50400
2017-07-20T09:54:23.469Z,20480
2017-07-20T09:55:23.478Z,27488
2017-07-20T09:56:23.480Z,11864
2017-07-20T09:57:23.183Z,8628
2017-07-20T09:58:23.797Z,10368
2017-07-20T09:59:23.805Z,14236
2017-07-20T10:00:23.443Z,8824
2017-07-20T10:01:23.106Z,11924
2017-07-20T10:02:23.732Z,12560
2017-07-20T10:03:23.393Z,46016
2017-07-20T10:04:23.711Z,46272
2017-07-20T10:05:23.391Z,48672
2017-07-20T10:06:23.684Z,35296
2017-07-20T10:07:23.657Z,8608
2017-07-20T10:08:23.354Z,17184
2017-07-20T10:09:23.676Z,50080
2017-07-20T10:10:23.655Z,15104
2017-07-20T10:11:23.644Z,32128
2017-07-20T10:12:23.636Z,19840
2017-07-20T10:13:23.315Z,37600
2017-07-20T10:14:23.313Z,8544
2017-07-20T10:15:23.596Z,9052
2017-07-20T10:16:23.306Z,12600
2017-07-20T10:17:23.586Z,6592
2017-07-20T10:18:23.607Z,5052
2017-07-20T10:19:22.951Z,3976
2017-07-20T10:20:23.552Z,3024
2017-07-20T10:21:23.246Z,4164
2017-07-20T10:22:23.556Z,4632
2017-07-20T10:23:23.535Z,4844
2017-07-20T10:24:23.521Z,5948
2017-07-20T10:25:23.521Z,5780
2017-07-20T10:26:23.515Z,6548
2017-07-20T10:27:23.527Z,8180
2017-07-20T10:28:22.884Z,7828
2017-07-20T10:29:23.507Z,9140
2017-07-20T10:30:23.456Z,8392
2017-07-20T10:31:23.475Z,10428
2017-07-20T10:32:23.135Z,9572
2017-07-20T10:33:23.515Z,10236
2017-07-20T10:34:23.504Z,10640
2017-07-20T10:35:23.485Z,11820
2017-07-20T10:36:23.114Z,11544
2017-07-20T10:37:22.836Z,12428
2017-07-20T10:38:23.085Z,12748
2017-07-20T10:39:23.147Z,13264
2017-07-20T10:40:23.425Z,12892
2017-07-20T10:41:23.374Z,13768
2017-07-20T10:42:23.056Z,12728
2017-07-20T10:43:23.365Z,12692
2017-07-20T10:44:23.334Z,10376
2017-07-20T10:45:23.041Z,10140
2017-07-20T10:46:23.340Z,9436
2017-07-20T10:47:23.026Z,7348
2017-07-20T10:48:22.997Z,7096
2017-07-20T10:49:23.084Z,7176
2017-07-20T10:50:23.326Z,8508
2017-07-20T10:51:22.998Z,8444
2017-07-20T10:52:22.979Z,9208
2017-07-20T10:53:23.273Z,11356
2017-07-20T10:54:22.944Z,12324
2017-07-20T10:55:23.245Z,13332
2017-07-20T10:56:23.244Z,14456
2017-07-20T10:57:23.224Z,15668
2017-07-20T10:58:23.213Z,16032
2017-07-20T10:59:22.893Z,15000
2017-07-20T11:00:22.907Z,12732
2017-07-20T11:01:22.903Z,11344
2017-07-20T11:02:22.961Z,11168
2017-07-20T11:03:22.862Z,10464
2017-07-20T11:04:23.158Z,11300
2017-07-20T11:05:23.144Z,10356
2017-07-20T11:06:23.186Z,8716
2017-07-20T11:07:23.125Z,7728
2017-07-20T11:08:22.833Z,8296
2017-07-20T11:09:22.877Z,8444
2017-07-20T11:10:23.153Z,8524
2017-07-20T11:11:23.165Z,6856
2017-07-20T11:12:23.175Z,5856
2017-07-20T11:13:22.864Z,6972
2017-07-20T11:14:23.107Z,8456
2017-07-20T11:15:23.114Z,8452
2017-07-20T11:16:22.765Z,9388
2017-07-20T11:17:23.135Z,9044
2017-07-20T11:18:22.803Z,7096
2017-07-20T11:19:23.098Z,6928
2017-07-20T11:20:22.405Z,7128
2017-07-20T11:21:22.721Z,6932
2017-07-20T11:22:23.073Z,6724
2017-07-20T11:23:22.711Z,6844
2017-07-20T11:24:23.028Z,6396
2017-07-20T11:25:23.044Z,6296
2017-07-20T11:26:22.998Z,5768
2017-07-20T11:27:22.711Z,4768
2017-07-20T11:28:22.705Z,3860
2017-07-20T11:29:23.017Z,3200
2017-07-20T11:30:23.015Z,3108
2017-07-20T11:31:22.944Z,3680
2017-07-20T11:32:22.971Z,3912
2017-07-20T11:33:22.915Z,4208
2017-07-20T11:34:22.972Z,4936
2017-07-20T11:35:22.586Z,5340
2017-07-20T11:36:22.874Z,5332
2017-07-20T11:37:22.870Z,4900
2017-07-20T11:38:22.876Z,4884
2017-07-20T11:39:22.877Z,5476
2017-07-20T11:40:22.566Z,5748
2017-07-20T11:41:22.507Z,5732
2017-07-20T11:42:22.810Z,5948
2017-07-20T11:43:22.806Z,6456
2017-07-20T11:44:22.811Z,6172
2017-07-20T11:45:22.515Z,7144
2017-07-20T11:46:22.769Z,7972
2017-07-20T11:47:22.778Z,7988
2017-07-20T11:48:22.733Z,7832
2017-07-20T11:49:22.134Z,8028
2017-07-20T11:50:22.735Z,8348
2017-07-20T11:51:22.764Z,8644
2017-07-20T11:52:22.708Z,9328
2017-07-20T11:53:22.434Z,10264
2017-07-20T11:54:22.715Z,10400
2017-07-20T11:55:22.714Z,10812
2017-07-20T11:56:22.678Z,10596
2017-07-20T11:57:22.689Z,11220
2017-07-20T11:58:22.794Z,11812
2017-07-20T11:59:22.827Z,11060
2017-07-20T12:00:22.467Z,11380
2017-07-20T12:01:22.648Z,10900
2017-07-20T12:02:22.453Z,10416
2017-07-20T12:03:22.605Z,10000
2017-07-20T12:04:22.304Z,9588
2017-07-20T12:05:22.625Z,9076
2017-07-20T12:06:22.304Z,8800
2017-07-20T12:07:22.611Z,8552
2017-07-20T12:08:22.670Z,8232
2017-07-20T12:09:22.276Z,7980
2017-07-20T12:10:22.340Z,7772
2017-07-20T12:11:22.562Z,7436
2017-07-20T12:12:22.236Z,7300
2017-07-20T12:13:22.556Z,7472
2017-07-20T12:14:22.315Z,6564
2017-07-20T12:15:22.503Z,7044
2017-07-20T12:16:22.534Z,8300
2017-07-20T12:17:22.183Z,9116
2017-07-20T12:18:22.474Z,10132
2017-07-20T12:19:22.163Z,12800
2017-07-20T12:20:22.144Z,12228
2017-07-20T12:21:22.144Z,11784
2017-07-20T12:22:22.151Z,11548
2017-07-20T12:23:21.812Z,11704
2017-07-20T12:24:22.422Z,11196
2017-07-20T12:25:22.403Z,10344
2017-07-20T12:26:22.411Z,9524
2017-07-20T12:27:22.089Z,10164
2017-07-20T12:28:22.404Z,9260
2017-07-20T12:29:22.093Z,6776
2017-07-20T12:30:22.084Z,9224
2017-07-20T12:31:21.757Z,8612
2017-07-20T12:32:22.385Z,6828
2017-07-20T12:33:22.062Z,7460
2017-07-20T12:34:22.350Z,10992
2017-07-20T12:35:22.029Z,10172
2017-07-20T12:36:22.333Z,10404
2017-07-20T12:37:22.008Z,7452
2017-07-20T12:38:22.306Z,10640
2017-07-20T12:39:21.996Z,9124
2017-07-20T12:40:21.978Z,8572
2017-07-20T12:41:21.650Z,5992
2017-07-20T12:42:22.263Z,8536
2017-07-20T12:43:22.266Z,8608
2017-07-20T12:44:22.245Z,8732
2017-07-20T12:45:22.266Z,8760
2017-07-20T12:46:22.222Z,8196
2017-07-20T12:47:21.967Z,9036
2017-07-20T12:48:21.938Z,9640
2017-07-20T12:49:21.599Z,5848
2017-07-20T12:50:22.324Z,5832
2017-07-20T12:51:22.334Z,8116
2017-07-20T12:52:22.200Z,8768
2017-07-20T12:53:21.586Z,9124
2017-07-20T12:54:21.854Z,9736
2017-07-20T12:55:21.903Z,9428
2017-07-20T12:56:21.846Z,9172
2017-07-20T12:57:22.183Z,9156
2017-07-20T12:58:22.237Z,8260
2017-07-20T12:59:22.174Z,8716
2017-07-20T13:00:22.131Z,9008
2017-07-20T13:01:21.809Z,8900
2017-07-20T13:02:21.814Z,9132
2017-07-20T13:03:21.807Z,9240
2017-07-20T13:04:21.779Z,8984
2017-07-20T13:05:21.785Z,8648
2017-07-20T13:06:22.096Z,4972
2017-07-20T13:07:21.777Z,3680
2017-07-20T13:08:22.064Z,3352
2017-07-20T13:09:21.751Z,3084
2017-07-20T13:10:21.753Z,3016
2017-07-20T13:11:22.034Z,2864
2017-07-20T13:12:21.717Z,2488
2017-07-20T13:13:21.717Z,2184
2017-07-20T13:14:21.695Z,2104
2017-07-20T13:15:22.005Z,1948
2017-07-20T13:16:21.993Z,1852
2017-07-20T13:17:21.705Z,1596
2017-07-20T13:18:21.682Z,1336
2017-07-20T13:19:21.963Z,1116
2017-07-20T13:20:21.726Z,976
2017-07-20T13:21:21.960Z,884
2017-07-20T13:22:21.652Z,864
2017-07-20T13:23:21.631Z,924
2017-07-20T13:24:21.945Z,1036
2017-07-20T13:25:21.305Z,1176
2017-07-20T13:26:21.904Z,1372
2017-07-20T13:27:21.586Z,1608
2017-07-20T13:28:21.902Z,1868
2017-07-20T13:29:21.874Z,2168
2017-07-20T13:30:21.572Z,2380
2017-07-20T13:31:21.872Z,2888
2017-07-20T13:32:21.863Z,3684
2017-07-20T13:33:21.837Z,4416
2017-07-20T13:34:21.530Z,5532
2017-07-20T13:35:21.855Z,5480
2017-07-20T13:36:21.814Z,7480
2017-07-20T13:37:21.823Z,5880
2017-07-20T13:38:21.813Z,6408
2017-07-20T13:39:21.879Z,7480
2017-07-20T13:40:21.554Z,7176
2017-07-20T13:41:21.761Z,6732
2017-07-20T13:42:21.825Z,8800
2017-07-20T13:43:21.806Z,6292
2017-07-20T13:44:21.447Z,6024
2017-07-20T13:45:21.748Z,5524
2017-07-20T13:46:21.743Z,4840